createdAt,value
2023-04-14T00:00:58.417Z,3.60
2023-04-14T00:04:00.138Z,3.50
2023-04-14T00:07:01.865Z,4.00
2023-04-14T00:10:03.667Z,3.00
2023-04-14T00:13:05.315Z,5.80
2023-04-14T00:16:08.224Z,5.90
2023-04-14T00:19:09.838Z,5.20
2023-04-14T00:22:11.469Z,5.10
2023-04-14T00:25:13.170Z,6.00
2023-04-14T00:28:14.782Z,5.30
2023-04-14T00:31:19.939Z,5.10
2023-04-14T00:34:21.508Z,4.60
2023-04-14T00:37:24.240Z,4.20
2023-04-14T00:40:27.067Z,4.30
2023-04-14T00:43:28.659Z,4.90
2023-04-14T00:46:30.335Z,4.10
2023-04-14T00:49:32.149Z,5.80
2023-04-14T00:52:33.789Z,4.50
2023-04-14T00:55:36.378Z,4.80
2023-04-14T00:58:38.647Z,5.60
2023-04-14T01:01:41.389Z,4.40
2023-04-14T01:04:53.645Z,5.40
2023-04-14T01:07:56.549Z,6.40
2023-04-14T01:11:04.608Z,5.60
2023-04-14T01:14:21.729Z,5.00
2023-04-14T01:17:45.153Z,5.30
2023-04-14T01:20:52.121Z,5.60
2023-04-14T01:27:11.737Z,6.10
2023-04-14T01:30:31.636Z,5.80
2023-04-14T01:33:37.013Z,5.60
2023-04-14T01:36:44.062Z,5.90
2023-04-14T01:39:52.068Z,5.00
2023-04-14T01:42:59.943Z,5.60
2023-04-14T01:46:05.653Z,6.40
2023-04-14T01:49:07.766Z,7.70
2023-04-14T01:52:11.648Z,6.10
2023-04-14T01:55:17.033Z,5.30
2023-04-14T01:58:19.762Z,5.20
2023-04-14T02:01:21.666Z,4.60
2023-04-14T02:04:26.180Z,6.60
2023-04-14T02:07:28.467Z,6.00
2023-04-14T02:10:30.524Z,4.40
2023-04-14T02:13:32.275Z,5.30
2023-04-14T02:16:34.257Z,5.60
2023-04-14T02:19:37.103Z,5.00
2023-04-14T02:22:38.934Z,6.60
2023-04-14T02:25:43.099Z,4.70
2023-04-14T02:32:07.145Z,4.80
2023-04-14T02:35:12.372Z,5.10
2023-04-14T02:38:19.253Z,5.00
2023-04-14T02:41:30.079Z,4.60
2023-04-14T02:44:39.162Z,3.80
2023-04-14T02:47:45.148Z,4.80
2023-04-14T02:50:50.013Z,5.00
2023-04-14T02:53:53.731Z,4.90
2023-04-14T02:57:04.181Z,6.80
2023-04-14T03:03:13.809Z,4.60
2023-04-14T03:06:16.245Z,4.30
2023-04-14T03:09:18.643Z,4.00
2023-04-14T03:12:21.576Z,4.70
2023-04-14T03:15:25.014Z,4.80
2023-04-14T03:18:27.577Z,4.40
2023-04-14T03:21:30.886Z,6.00
2023-04-14T03:24:34.915Z,4.50
2023-04-14T03:27:36.953Z,5.10
2023-04-14T03:30:43.175Z,4.90
2023-04-14T03:33:47.332Z,4.20
2023-04-14T03:36:54.584Z,4.50
2023-04-14T03:40:00.548Z,4.20
2023-04-14T03:43:04.096Z,4.60
2023-04-14T03:46:07.735Z,5.00
2023-04-14T03:49:21.310Z,5.60
2023-04-14T03:52:24.195Z,4.70
2023-04-14T03:55:27.819Z,6.20
2023-04-14T03:58:30.187Z,5.40
2023-04-14T04:01:32.860Z,5.30
2023-04-14T04:04:36.814Z,5.60
2023-04-14T04:10:42.611Z,5.40
2023-04-14T04:13:45.664Z,5.70
2023-04-14T04:16:50.952Z,4.60
2023-04-14T04:19:54.860Z,5.60
2023-04-14T04:22:58.091Z,6.40
2023-04-14T04:25:59.936Z,6.10
2023-04-14T04:29:07.185Z,5.80
2023-04-14T04:32:09.184Z,7.30
2023-04-14T04:35:11.551Z,6.00
2023-04-14T04:38:14.756Z,6.30
2023-04-14T04:41:29.017Z,7.60
2023-04-14T04:44:33.233Z,6.00
2023-04-14T04:47:35.318Z,4.70
2023-04-14T04:50:36.957Z,5.10
2023-04-14T04:53:38.598Z,5.00
2023-04-14T04:56:40.304Z,5.80
2023-04-14T04:59:41.952Z,5.90
2023-04-14T05:02:43.601Z,6.10
2023-04-14T05:05:45.482Z,5.50
2023-04-14T05:08:47.766Z,6.40
2023-04-14T05:11:49.400Z,6.50
2023-04-14T05:14:51.666Z,5.80
2023-04-14T05:17:53.389Z,6.40
2023-04-14T05:20:55.028Z,9.10
2023-04-14T05:23:56.694Z,6.70
2023-04-14T05:30:07.736Z,5.90
2023-04-14T05:33:09.410Z,5.60
2023-04-14T05:36:11.316Z,6.00
2023-04-14T05:39:13.676Z,6.70
2023-04-14T05:42:15.599Z,7.60
2023-04-14T05:45:17.219Z,6.00
2023-04-14T05:48:18.878Z,6.60
2023-04-14T05:51:20.566Z,7.20
2023-04-14T05:54:22.304Z,5.20
2023-04-14T05:57:23.891Z,5.40
2023-04-14T06:00:25.732Z,5.90
2023-04-14T06:03:27.604Z,5.00
2023-04-14T06:06:29.494Z,6.80
2023-04-14T06:09:31.676Z,5.30
2023-04-14T06:12:33.253Z,6.60
2023-04-14T06:15:34.857Z,7.10
2023-04-14T06:18:36.496Z,6.80
2023-04-14T06:21:38.140Z,10.60
2023-04-14T06:24:40.837Z,9.70
2023-04-14T06:27:42.472Z,8.20
2023-04-14T06:30:44.116Z,7.50
2023-04-14T06:33:45.926Z,8.70
2023-04-14T06:36:48.516Z,9.10
2023-04-14T06:39:50.175Z,8.20
2023-04-14T06:42:51.847Z,5.70
2023-04-14T06:45:53.523Z,6.00
2023-04-14T06:48:55.223Z,8.20
2023-04-14T06:51:56.808Z,7.30
2023-04-14T06:54:58.469Z,7.40
2023-04-14T06:58:00.174Z,9.60
2023-04-14T07:01:03.214Z,7.40
2023-04-14T07:04:07.595Z,8.80
2023-04-14T07:07:09.921Z,7.30
2023-04-14T07:10:12.735Z,8.00
2023-04-14T07:13:14.307Z,7.80
2023-04-14T07:16:15.975Z,8.20
2023-04-14T07:19:18.087Z,8.10
2023-04-14T07:22:19.648Z,7.30
2023-04-14T07:25:21.868Z,8.10
2023-04-14T07:28:24.617Z,7.10
2023-04-14T07:31:26.753Z,9.20
2023-04-14T07:34:28.460Z,7.40
2023-04-14T07:37:30.129Z,7.20
2023-04-14T07:40:31.775Z,7.70
2023-04-14T07:43:36.916Z,7.00
2023-04-14T07:46:38.575Z,7.60
2023-04-14T07:49:40.138Z,8.10
2023-04-14T07:52:41.747Z,8.20
2023-04-14T07:55:43.422Z,7.80
2023-04-14T07:58:45.206Z,5.90
2023-04-14T08:01:48.115Z,7.00
2023-04-14T08:07:51.966Z,6.60
2023-04-14T08:10:53.784Z,7.30
2023-04-14T08:13:55.363Z,6.30
2023-04-14T08:16:56.990Z,6.30
2023-04-14T08:19:58.573Z,5.80
2023-04-14T08:23:00.222Z,6.60
2023-04-14T08:26:01.865Z,6.90
2023-04-14T08:29:04.554Z,5.70
2023-04-14T08:32:06.291Z,6.80
2023-04-14T08:35:38.624Z,8.50
2023-04-14T08:38:31.129Z,5.70
2023-04-14T08:41:38.694Z,5.60
2023-04-14T08:44:40.847Z,6.70
2023-04-14T08:47:43.570Z,4.90
2023-04-14T08:50:56.815Z,5.90
2023-04-14T08:53:59.128Z,7.60
2023-04-14T08:57:01.136Z,5.20
2023-04-14T09:00:05.024Z,5.80
2023-04-14T09:03:07.482Z,5.40
2023-04-14T09:06:09.699Z,4.50
2023-04-14T09:09:11.447Z,3.00
2023-04-14T09:12:13.757Z,2.40
2023-04-14T09:15:16.987Z,2.70
2023-04-14T09:18:18.725Z,3.70
2023-04-14T09:21:28.964Z,1.80
2023-04-14T09:24:42.604Z,1.60
2023-04-14T09:27:44.388Z,2.20
2023-04-14T09:30:46.156Z,2.80
2023-04-14T09:33:50.509Z,2.50
2023-04-14T09:37:10.247Z,2.20
2023-04-14T09:40:29.484Z,2.90
2023-04-14T09:43:31.128Z,2.30
2023-04-14T09:46:33.001Z,4.20
2023-04-14T09:49:34.723Z,1.50
2023-04-14T09:52:42.621Z,1.60
2023-04-14T09:55:45.599Z,1.60
2023-04-14T09:58:49.076Z,2.90
2023-04-14T10:01:51.147Z,2.40
2023-04-14T10:05:06.588Z,2.50
2023-04-14T10:08:08.282Z,2.30
2023-04-14T10:11:23.290Z,1.80
2023-04-14T10:14:24.946Z,2.80
2023-04-14T10:17:29.475Z,2.20
2023-04-14T10:20:32.570Z,3.70
2023-04-14T10:23:36.784Z,2.70
2023-04-14T10:26:38.406Z,3.80
2023-04-14T10:29:42.151Z,2.50
2023-04-14T10:35:48.473Z,2.50
2023-04-14T10:38:50.298Z,3.70
2023-04-14T10:41:52.808Z,2.10
2023-04-14T10:45:07.164Z,2.10
2023-04-14T10:48:09.544Z,3.60
2023-04-14T10:51:11.878Z,1.90
2023-04-14T10:54:20.404Z,2.20
2023-04-14T10:57:26.768Z,3.40
2023-04-14T11:00:30.159Z,1.80
2023-04-14T11:03:34.842Z,2.00
2023-04-14T11:06:46.164Z,2.00
2023-04-14T11:09:49.117Z,2.40
2023-04-14T11:12:58.088Z,2.10
2023-04-14T11:16:08.201Z,2.50
2023-04-14T11:19:16.197Z,2.20
2023-04-14T11:22:37.066Z,3.20
2023-04-14T11:25:39.618Z,3.30
2023-04-14T11:28:42.823Z,2.40
2023-04-14T11:31:44.508Z,3.40
2023-04-14T11:34:46.071Z,3.30
2023-04-14T11:37:47.796Z,2.90
2023-04-14T11:40:50.485Z,4.00
2023-04-14T11:43:52.104Z,2.90
2023-04-14T11:46:54.038Z,4.50
2023-04-14T11:49:55.690Z,3.40
2023-04-14T11:53:00.342Z,3.00
2023-04-14T11:56:02.808Z,2.70
2023-04-14T11:59:05.746Z,4.40
2023-04-14T12:02:15.474Z,5.50
2023-04-14T12:08:24.044Z,3.10
2023-04-14T12:11:25.801Z,2.50
2023-04-14T12:14:27.500Z,2.60
2023-04-14T12:17:29.692Z,3.40
2023-04-14T12:20:43.119Z,3.80
2023-04-14T12:23:51.120Z,2.90
2023-04-14T12:26:52.708Z,4.30
2023-04-14T12:29:54.430Z,2.60
2023-04-14T12:32:56.481Z,2.60
2023-04-14T12:36:06.298Z,3.00
2023-04-14T12:39:09.016Z,3.80
2023-04-14T12:42:10.868Z,3.20
2023-04-14T12:45:13.112Z,4.60
2023-04-14T12:48:18.248Z,2.30
2023-04-14T12:51:20.846Z,1.80
2023-04-14T12:54:22.480Z,2.10
2023-04-14T12:57:24.031Z,2.40
2023-04-14T13:00:30.089Z,3.30
2023-04-14T13:03:39.489Z,2.80
2023-04-14T13:06:41.392Z,4.20
2023-04-14T13:09:43.668Z,3.20
2023-04-14T13:12:45.351Z,3.10
2023-04-14T13:16:14.202Z,2.90
2023-04-14T13:19:08.803Z,2.70
2023-04-14T13:22:10.434Z,2.30
2023-04-14T13:25:12.003Z,2.00
2023-04-14T13:28:13.706Z,2.80
2023-04-14T13:31:17.229Z,3.40
2023-04-14T13:34:19.033Z,2.70
2023-04-14T13:37:21.925Z,2.90
2023-04-14T13:40:23.599Z,2.80
2023-04-14T13:43:25.263Z,3.90
2023-04-14T13:46:26.903Z,3.00
2023-04-14T13:49:28.612Z,3.90
2023-04-14T13:52:30.630Z,3.30
2023-04-14T13:55:32.677Z,3.20
2023-04-14T13:58:34.261Z,3.80
2023-04-14T14:01:36.009Z,3.50
2023-04-14T14:04:37.849Z,2.80
2023-04-14T14:07:39.847Z,2.90
2023-04-14T14:10:41.841Z,6.50
2023-04-14T14:13:43.421Z,3.50
2023-04-14T14:16:45.369Z,3.10
2023-04-14T14:19:46.963Z,3.30
2023-04-14T14:22:48.609Z,3.40
2023-04-14T14:25:50.289Z,4.10
2023-04-14T14:28:51.889Z,3.70
2023-04-14T14:31:53.479Z,4.50
2023-04-14T14:34:55.585Z,2.80
2023-04-14T14:37:58.900Z,5.50
2023-04-14T14:41:00.958Z,4.10
2023-04-14T14:44:02.841Z,3.50
2023-04-14T14:47:05.467Z,3.50
2023-04-14T14:50:08.725Z,3.60
2023-04-14T14:53:10.750Z,5.60
2023-04-14T14:56:12.346Z,3.70
2023-04-14T14:59:14.061Z,5.50
2023-04-14T15:02:15.696Z,4.50
2023-04-14T15:05:17.495Z,3.20
2023-04-14T15:08:19.676Z,3.50
2023-04-14T15:11:21.549Z,3.60
2023-04-14T15:14:24.216Z,3.70
2023-04-14T15:17:25.856Z,3.30
2023-04-14T15:20:27.540Z,2.80
2023-04-14T15:23:29.192Z,4.30
2023-04-14T15:26:30.773Z,3.90
2023-04-14T15:29:32.486Z,4.80
2023-04-14T15:32:34.606Z,4.60
2023-04-14T15:35:38.804Z,4.00
2023-04-14T15:38:41.441Z,3.70
2023-04-14T15:41:43.413Z,3.60
2023-04-14T15:44:45.347Z,4.80
2023-04-14T15:47:48.417Z,3.80
2023-04-14T15:50:50.135Z,3.70
2023-04-14T15:53:52.184Z,3.50
2023-04-14T15:56:53.838Z,4.30
2023-04-14T15:59:55.471Z,3.20
2023-04-14T16:02:57.213Z,4.50
2023-04-14T16:06:03.377Z,4.50
2023-04-14T16:09:05.323Z,4.90
2023-04-14T16:12:07.109Z,4.70
2023-04-14T16:15:14.770Z,4.90
2023-04-14T16:18:16.610Z,2.00
2023-04-14T16:21:18.328Z,1.20
2023-04-14T16:24:19.839Z,0.50
2023-04-14T16:27:21.472Z,1.10
2023-04-14T16:30:23.123Z,0.70
2023-04-14T16:33:24.916Z,0.60
2023-04-14T16:36:27.229Z,0.90
2023-04-14T16:39:30.462Z,0.90
2023-04-14T16:42:32.669Z,1.90
2023-04-14T16:45:34.892Z,2.30
2023-04-14T16:48:37.201Z,1.80
2023-04-14T16:51:39.144Z,3.40
2023-04-14T16:54:41.347Z,2.80
2023-04-14T16:57:42.996Z,1.70
2023-04-14T17:00:44.503Z,2.10
2023-04-14T17:03:46.430Z,1.80
2023-04-14T17:06:48.287Z,1.50
2023-04-14T17:09:49.908Z,1.70
2023-04-14T17:12:52.575Z,1.50
2023-04-14T17:16:05.724Z,1.40
2023-04-14T17:19:10.742Z,1.70
2023-04-14T17:22:12.569Z,2.20
2023-04-14T17:25:15.085Z,1.50
2023-04-14T17:28:17.184Z,2.50
2023-04-14T17:31:19.724Z,2.70
2023-04-14T17:34:21.446Z,2.00
2023-04-14T17:37:23.508Z,1.90
2023-04-14T17:40:25.498Z,2.80
2023-04-14T17:43:27.438Z,3.80
2023-04-14T17:46:35.242Z,1.50
2023-04-14T17:49:36.958Z,1.70
2023-04-14T17:52:51.280Z,1.70
2023-04-14T17:55:53.022Z,2.40
2023-04-14T17:58:54.668Z,3.20
2023-04-14T18:01:56.327Z,2.90
2023-04-14T18:04:58.246Z,1.40
2023-04-14T18:08:00.091Z,2.40
2023-04-14T18:11:01.731Z,1.70
2023-04-14T18:14:03.992Z,1.30
2023-04-14T18:17:06.458Z,1.20
2023-04-14T18:20:10.969Z,1.80
2023-04-14T18:23:12.867Z,1.50
2023-04-14T18:29:23.752Z,2.20
2023-04-14T18:32:25.704Z,2.40
2023-04-14T18:35:33.919Z,4.50
2023-04-14T18:38:37.416Z,2.30
2023-04-14T18:41:40.170Z,2.00
2023-04-14T18:44:42.109Z,2.40
2023-04-14T18:47:46.077Z,1.80
2023-04-14T18:50:48.013Z,3.80
2023-04-14T18:53:49.869Z,3.90
2023-04-14T18:56:51.820Z,2.10
2023-04-14T18:59:53.482Z,3.80
2023-04-14T19:02:58.598Z,2.40
2023-04-14T19:06:00.296Z,3.70
2023-04-14T19:09:04.278Z,3.40
2023-04-14T19:12:09.343Z,4.40
2023-04-14T19:15:17.829Z,4.30
2023-04-14T19:18:20.409Z,5.20
2023-04-14T19:21:22.176Z,3.80
2023-04-14T19:24:24.361Z,5.20
2023-04-14T19:27:26.589Z,6.00
2023-04-14T19:30:29.160Z,7.20
2023-04-14T19:33:30.929Z,7.20
2023-04-14T19:36:34.272Z,4.70
2023-04-14T19:39:35.842Z,3.50
2023-04-14T19:42:37.506Z,3.80
2023-04-14T19:45:39.071Z,5.40
2023-04-14T19:48:40.681Z,4.90
2023-04-14T19:51:43.201Z,4.50
2023-04-14T19:54:45.791Z,3.10
2023-04-14T19:57:47.327Z,3.40
2023-04-14T20:00:51.587Z,3.90
2023-04-14T20:04:04.403Z,4.10
2023-04-14T20:07:10.884Z,3.10
2023-04-14T20:10:12.509Z,4.20
2023-04-14T20:13:16.024Z,3.10
2023-04-14T20:16:17.787Z,2.60
2023-04-14T20:19:19.366Z,3.00
2023-04-14T20:22:21.047Z,3.30
2023-04-14T20:25:22.992Z,2.80
2023-04-14T20:28:26.116Z,3.20
2023-04-14T20:31:28.228Z,2.90
2023-04-14T20:34:29.875Z,4.50
2023-04-14T20:37:32.151Z,2.60
2023-04-14T20:40:33.968Z,2.50
2023-04-14T20:43:35.888Z,2.40
2023-04-14T20:46:37.669Z,2.60
2023-04-14T20:49:39.395Z,3.70
2023-04-14T20:52:41.661Z,2.50
2023-04-14T20:55:43.489Z,3.20
2023-04-14T20:58:45.733Z,3.20
2023-04-14T21:01:48.502Z,3.00
2023-04-14T21:04:50.372Z,2.70
2023-04-14T21:07:51.955Z,3.60
2023-04-14T21:11:16.225Z,2.50
2023-04-14T21:15:30.429Z,3.10
2023-04-14T21:17:37.230Z,3.90
2023-04-14T21:20:39.019Z,2.60
2023-04-14T21:23:41.188Z,3.40
2023-04-14T21:26:42.867Z,2.80
2023-04-14T21:29:44.992Z,2.60
2023-04-14T21:32:46.658Z,3.10
2023-04-14T21:35:48.313Z,3.10
2023-04-14T21:38:49.992Z,3.00
2023-04-14T21:41:52.433Z,3.30
2023-04-14T21:44:54.118Z,2.50
2023-04-14T21:47:55.737Z,3.30
2023-04-14T21:50:57.712Z,3.00
2023-04-14T21:53:59.284Z,3.30
2023-04-14T21:57:00.957Z,3.70
2023-04-14T22:00:03.222Z,3.20
2023-04-14T22:03:05.033Z,4.20
2023-04-14T22:06:07.478Z,4.20
2023-04-14T22:09:09.054Z,3.70
2023-04-14T22:12:10.665Z,3.70
2023-04-14T22:15:12.344Z,3.90
2023-04-14T22:18:13.871Z,2.90
2023-04-14T22:21:15.759Z,3.00
2023-04-14T22:24:17.649Z,5.80
2023-04-14T22:27:19.282Z,4.80
2023-04-14T22:30:20.805Z,3.60
2023-04-14T22:33:22.359Z,3.50
2023-04-14T22:36:23.885Z,3.20
2023-04-14T22:39:25.514Z,4.10
2023-04-14T22:42:27.438Z,3.70
2023-04-14T22:45:29.027Z,3.10
2023-04-14T22:48:30.740Z,3.70
2023-04-14T22:51:32.412Z,4.10
2023-04-14T22:54:33.977Z,2.90
2023-04-14T22:57:35.595Z,3.10
2023-04-14T23:00:37.486Z,2.80
2023-04-14T23:03:39.285Z,3.90
2023-04-14T23:06:40.939Z,4.30
2023-04-14T23:09:42.581Z,2.80
2023-04-14T23:12:44.205Z,3.90
2023-04-14T23:15:46.408Z,3.10
2023-04-14T23:18:52.941Z,2.90
2023-04-14T23:21:54.615Z,2.70
2023-04-14T23:24:56.218Z,3.90
2023-04-14T23:27:58.264Z,2.80
2023-04-14T23:30:59.928Z,3.50
2023-04-14T23:34:01.604Z,3.70
2023-04-14T23:37:03.403Z,4.70
2023-04-14T23:40:06.217Z,4.40
2023-04-14T23:43:08.240Z,4.50
2023-04-14T23:46:09.941Z,4.00
2023-04-14T23:49:24.368Z,3.30
2023-04-14T23:52:35.968Z,3.80
2023-04-14T23:55:37.981Z,3.10
2023-04-14T23:58:39.677Z,3.10
